Time;durP1;ratioP1;P1;durP2;ratioP2;P2;SDS_P1;SDS_P2;PMS_P1;PMS_P2;Temp;Humidity;BMP_temperature;BMP_pressure;BME280_temperature;BME280_humidity;BME280_pressure;Samples;Min_cycle;Max_cycle;Signal;HPM_P1;HPM_P2
2023/03/29 15:37:25;;;;;;;40.10;28.60;;;;;;;4.82;47.87;99436.29;102215;1304;636065;-71
2023/03/29 15:39:53;;;;;;;22.90;11.40;;;;;;;4.79;48.19;99433.80;105173;1259;95596;-72
2023/03/29 15:42:30;;;;;;;18.60;8.50;;;;;;;4.78;48.49;99438.77;105101;1257;94326;-70
2023/03/29 15:45:02;;;;;;;36.80;23.60;;;;;;;4.77;48.02;99438.45;104944;1261;105788;-72
2023/03/29 15:47:34;;;;;;;17.70;7.80;;;;;;;4.76;48.55;99438.30;105134;1258;102189;-72
2023/03/29 15:50:02;;;;;;;21.90;9.70;;;;;;;4.73;48.34;99437.04;105073;1253;156914;-69
2023/03/29 15:52:30;;;;;;;26.10;12.80;;;;;;;4.70;48.37;99435.58;105193;1257;94388;-70
2023/03/29 15:54:58;;;;;;;18.50;7.10;;;;;;;4.69;48.51;99435.63;105527;1257;94399;-72
2023/03/29 15:57:27;;;;;;;23.00;9.50;;;;;;;4.66;48.64;99432.75;106128;1254;106907;-71
2023/03/29 15:59:56;;;;;;;22.10;9.10;;;;;;;4.65;48.71;99431.59;105671;1253;102352;-71
2023/03/29 16:02:25;;;;;;;22.00;10.50;;;;;;;4.64;48.36;99429.88;105204;1261;107577;-71
2023/03/29 16:04:53;;;;;;;18.70;7.80;;;;;;;4.63;48.38;99434.12;105812;1254;95219;-72
2023/03/29 16:07:21;;;;;;;17.10;6.80;;;;;;;4.62;48.21;99436.59;105536;1257;95316;-71
2023/03/29 16:09:49;;;;;;;18.80;6.40;;;;;;;4.62;48.63;99432.56;105369;1254;108594;-70
2023/03/29 16:12:18;;;;;;;18.60;6.70;;;;;;;4.59;48.70;99440.58;105426;1260;102276;-70
2023/03/29 16:14:46;;;;;;;49.60;19.90;;;;;;;4.55;48.42;99436.36;105460;1255;107504;-72
2023/03/29 16:17:14;;;;;;;24.70;9.90;;;;;;;4.53;48.29;99436.13;105763;1251;96056;-70
2023/03/29 16:19:42;;;;;;;29.50;11.90;;;;;;;4.49;48.62;99436.11;105630;1251;95271;-70
2023/03/29 16:22:10;;;;;;;28.40;11.00;;;;;;;4.44;48.39;99436.29;105657;1254;108151;-69
2023/03/29 16:24:38;;;;;;;105.30;40.90;;;;;;;4.42;48.30;99435.02;105386;1257;102288;-70
2023/03/29 16:27:07;;;;;;;176.20;68.80;;;;;;;4.40;48.23;99434.05;105685;1256;107628;-71
2023/03/29 16:29:35;;;;;;;195.20;83.10;;;;;;;4.35;48.38;99431.58;105701;1251;95883;-71
2023/03/29 16:32:03;;;;;;;106.40;46.10;;;;;;;4.29;48.57;99429.55;105605;1251;95216;-72
2023/03/29 16:34:34;;;;;;;47.70;19.80;;;;;;;4.22;48.36;99431.95;105490;1257;108099;-74
2023/03/29 16:37:02;;;;;;;53.20;24.10;;;;;;;4.15;48.47;99430.61;105698;1251;102414;-71
2023/03/29 16:39:30;;;;;;;121.50;49.50;;;;;;;4.09;48.35;99433.86;105595;1256;107350;-69
2023/03/29 16:41:59;;;;;;;62.20;26.10;;;;;;;4.02;48.36;99432.56;105811;1257;95240;-70
2023/03/29 16:44:30;;;;;;;50.10;23.70;;;;;;;3.92;48.38;99435.40;105311;1257;95485;-71
2023/03/29 16:46:59;;;;;;;102.20;44.20;;;;;;;3.81;48.29;99437.42;105543;1256;107959;-70
2023/03/29 16:49:29;;;;;;;274.40;122.10;;;;;;;3.69;48.20;99434.89;105515;1251;101941;-75
2023/03/29 16:52:08;;;;;;;225.30;111.90;;;;;;;3.56;48.43;99436.23;105589;1255;107407;-76
2023/03/29 16:54:38;;;;;;;90.20;47.00;;;;;;;3.44;48.29;99434.08;105460;1264;96079;-75
2023/03/29 16:57:09;;;;;;;68.60;37.40;;;;;;;3.32;48.42;99433.13;105560;1254;95202;-72
2023/03/29 16:59:37;;;;;;;81.90;41.00;;;;;;;3.20;48.48;99433.74;105667;1251;107684;-73
2023/03/29 17:02:05;;;;;;;49.40;25.10;;;;;;;3.08;48.36;99432.91;105911;1256;101974;-74
2023/03/29 17:04:33;;;;;;;52.00;27.30;;;;;;;2.98;48.43;99435.76;105498;1255;107413;-72
2023/03/29 17:07:02;;;;;;;49.10;26.90;;;;;;;2.86;48.64;99434.40;105735;1267;95281;-72
2023/03/29 17:09:30;;;;;;;64.10;36.40;;;;;;;2.75;48.40;99430.05;105681;1255;95323;-75
2023/03/29 17:11:58;;;;;;;71.00;39.60;;;;;;;2.65;48.44;99427.77;108771;1251;108487;-75
2023/03/29 17:14:33;;;;;;;66.70;37.90;;;;;;;2.55;48.68;99426.52;108772;1251;101843;-73
2023/03/29 17:17:01;;;;;;;61.60;32.80;;;;;;;2.46;48.86;99432.58;108730;1251;106372;-71
2023/03/29 17:19:29;;;;;;;62.10;31.70;;;;;;;2.38;48.61;99434.98;108769;1251;93138;-73
2023/03/29 17:21:58;;;;;;;58.70;29.40;;;;;;;2.31;48.73;99431.19;108582;1251;94257;-72
2023/03/29 17:24:30;;;;;;;61.00;30.00;;;;;;;2.23;48.62;99432.65;105718;1256;108604;-73
2023/03/29 17:26:58;;;;;;;66.90;32.70;;;;;;;2.16;48.41;99435.35;105748;1257;102721;-75
2023/03/29 17:29:26;;;;;;;59.10;30.60;;;;;;;2.08;48.63;99439.77;105898;1251;107242;-74
2023/03/29 17:31:54;;;;;;;71.70;35.30;;;;;;;2.01;48.75;99441.23;105709;1256;95368;-74
2023/03/29 17:34:27;;;;;;;79.10;38.50;;;;;;;1.93;48.61;99442.52;105439;1253;96193;-75
2023/03/29 17:36:56;;;;;;;84.20;42.90;;;;;;;1.85;48.75;99440.16;105657;1253;107148;-74
2023/03/29 17:39:25;;;;;;;92.90;44.70;;;;;;;1.77;49.04;99442.67;105588;1256;101957;-75
2023/03/29 17:41:54;;;;;;;83.90;42.20;;;;;;;1.69;48.80;99441.32;105650;1257;107998;-72
2023/03/29 17:44:22;;;;;;;103.60;46.30;;;;;;;1.62;48.91;99439.98;105494;1257;95228;-73
2023/03/29 17:46:51;;;;;;;103.40;47.30;;;;;;;1.56;48.86;99441.02;105640;1254;95372;-72
2023/03/29 17:49:19;;;;;;;119.80;51.20;;;;;;;1.49;48.85;99445.23;105406;1257;108140;-72
2023/03/29 17:51:47;;;;;;;116.30;52.20;;;;;;;1.46;48.99;99447.95;105575;1256;101863;-75
2023/03/29 17:54:15;;;;;;;113.30;50.60;;;;;;;1.41;49.03;99446.36;105567;1257;107104;-74
2023/03/29 17:56:43;;;;;;;113.20;48.60;;;;;;;1.35;48.96;99447.91;105418;1251;95639;-74
2023/03/29 17:59:12;;;;;;;97.10;44.60;;;;;;;1.31;48.94;99452.41;105363;1256;95233;-73
2023/03/29 18:01:40;;;;;;;92.70;41.50;;;;;;;1.25;49.27;99456.73;105518;1251;109103;-76
2023/03/29 18:04:09;;;;;;;82.60;37.10;;;;;;;1.21;49.18;99455.12;105555;1255;102243;-75
2023/03/29 18:06:37;;;;;;;81.70;37.50;;;;;;;1.20;49.07;99459.16;105516;1255;107609;-74
2023/03/29 18:09:06;;;;;;;75.50;35.10;;;;;;;1.18;49.16;99459.58;105466;1256;95695;-75
2023/03/29 18:11:35;;;;;;;70.00;32.90;;;;;;;1.15;49.09;99458.61;105382;1257;96576;-76
2023/03/29 18:14:04;;;;;;;58.90;28.70;;;;;;;1.13;49.20;99457.45;105386;1253;108423;-75
2023/03/29 18:16:34;;;;;;;61.80;28.70;;;;;;;1.14;49.07;99457.77;105679;1251;101840;-74
2023/03/29 18:19:03;;;;;;;72.10;33.50;;;;;;;1.13;49.02;99459.37;105258;1257;107034;-72
2023/03/29 18:21:31;;;;;;;81.80;39.20;;;;;;;1.11;49.23;99468.49;105543;1253;95221;-72
2023/03/29 18:24:00;;;;;;;104.30;48.10;;;;;;;1.09;49.35;99472.58;105639;1255;95164;-78
2023/03/29 18:26:28;;;;;;;115.10;50.60;;;;;;;1.09;49.39;99475.38;105586;1256;107650;-73
2023/03/29 18:28:56;;;;;;;116.20;54.20;;;;;;;1.07;49.27;99469.32;105564;1253;103665;-72
2023/03/29 18:31:26;;;;;;;117.40;54.70;;;;;;;1.04;49.38;99469.71;105646;1256;108380;-74
2023/03/29 18:33:58;;;;;;;;;;;;;;;1.02;49.17;99467.17;105786;1257;95364;-70
2023/03/29 18:36:29;;;;;;;97.00;44.50;;;;;;;1.00;49.46;99472.13;105730;1253;96222;-70
2023/03/29 18:39:06;;;;;;;104.50;45.30;;;;;;;1.00;49.67;99467.91;105526;1251;108370;-74
2023/03/29 18:41:36;;;;;;;89.60;41.70;;;;;;;1.02;49.53;99471.87;105322;1251;101905;-76
2023/03/29 18:44:07;;;;;;;77.40;38.40;;;;;;;1.04;49.84;99469.73;106240;1257;106082;-78
2023/03/29 18:46:36;;;;;;;71.40;34.80;;;;;;;1.06;49.68;99467.94;106331;1257;95296;-75
2023/03/29 18:49:06;;;;;;;68.30;32.40;;;;;;;1.09;49.67;99465.06;108737;1251;93200;-73
2023/03/29 18:51:34;;;;;;;57.90;29.00;;;;;;;1.12;49.60;99463.40;105892;1251;109152;-72
2023/03/29 18:54:03;;;;;;;52.60;25.10;;;;;;;1.17;49.65;99465.71;105426;1256;101937;-74
2023/03/29 18:56:31;;;;;;;50.60;25.80;;;;;;;1.19;49.75;99465.30;105666;1256;106225;-70
2023/03/29 18:59:05;;;;;;;50.10;25.50;;;;;;;1.22;49.67;99465.08;105762;1256;95230;-70
2023/03/29 19:01:33;;;;;;;52.90;25.80;;;;;;;1.23;49.56;99465.73;105531;1254;95298;-70
2023/03/29 19:04:01;;;;;;;56.40;26.60;;;;;;;1.24;49.84;99463.27;105744;1252;108319;-70
2023/03/29 19:06:30;;;;;;;58.20;27.80;;;;;;;1.26;49.86;99463.73;105540;1257;101994;-71
2023/03/29 19:09:07;;;;;;;67.90;32.60;;;;;;;1.29;49.67;99458.57;105827;1255;107705;-69
2023/03/29 19:11:35;;;;;;;63.80;28.70;;;;;;;1.30;49.79;99456.27;105701;1257;96174;-70
2023/03/29 19:14:07;;;;;;;50.00;23.20;;;;;;;1.29;49.79;99458.03;105486;1256;95153;-70
2023/03/29 19:16:35;;;;;;;46.90;21.20;;;;;;;1.28;49.74;99456.66;105448;1255;108275;-70
2023/03/29 19:19:05;;;;;;;50.40;22.20;;;;;;;1.27;49.69;99456.70;105367;1252;100858;-72
2023/03/29 19:21:33;;;;;;;51.80;23.50;;;;;;;1.25;49.78;99455.17;105319;1257;107054;-70
2023/03/29 19:24:03;;;;;;;52.40;24.10;;;;;;;1.26;49.56;99453.77;105251;1257;95370;-69
2023/03/29 19:26:32;;;;;;;50.80;23.00;;;;;;;1.25;49.85;99448.89;105488;1255;95517;-69
2023/03/29 19:29:00;;;;;;;41.70;18.40;;;;;;;1.25;49.78;99448.20;105335;1256;108501;-69
2023/03/29 19:31:28;;;;;;;36.30;16.10;;;;;;;1.24;49.75;99449.95;105528;1257;102246;-70
2023/03/29 19:33:56;;;;;;;43.20;17.00;;;;;;;1.23;49.97;99452.11;105495;1257;107671;-71
2023/03/29 19:36:24;;;;;;;41.70;16.90;;;;;;;1.23;49.72;99455.27;105462;1254;95288;-70
2023/03/29 19:38:53;;;;;;;43.30;18.80;;;;;;;1.22;49.78;99449.52;105539;1254;95334;-73
2023/03/29 19:41:21;;;;;;;40.30;17.20;;;;;;;1.22;49.58;99452.16;105635;1256;108103;-70
2023/03/29 19:43:50;;;;;;;43.00;17.60;;;;;;;1.21;49.88;99450.95;105526;1256;102215;-70
2023/03/29 19:46:19;;;;;;;47.90;21.20;;;;;;;1.20;49.90;99452.55;105417;1255;106598;-71
2023/03/29 19:48:47;;;;;;;46.10;20.50;;;;;;;1.19;49.56;99452.91;105372;1256;97845;-69
2023/03/29 19:51:15;;;;;;;46.60;18.30;;;;;;;1.21;49.85;99450.44;105210;1251;97111;-73
2023/03/29 19:53:43;;;;;;;36.00;15.00;;;;;;;1.22;49.83;99445.34;105608;1255;109893;-69
2023/03/29 19:56:13;;;;;;;33.40;13.90;;;;;;;1.23;50.25;99441.08;105361;1251;101234;-70
2023/03/29 19:58:41;;;;;;;29.20;12.30;;;;;;;1.27;49.94;99439.41;105476;1251;106744;-69
2023/03/29 20:01:09;;;;;;;31.60;12.40;;;;;;;1.30;50.24;99439.16;105530;1257;96546;-70
2023/03/29 20:03:37;;;;;;;28.70;11.70;;;;;;;1.33;50.10;99438.73;105578;1251;96763;-69
2023/03/29 20:06:08;;;;;;;28.30;12.00;;;;;;;1.35;50.14;99436.21;105285;1257;111436;-71
2023/03/29 20:08:37;;;;;;;30.30;11.70;;;;;;;1.38;50.20;99438.95;105440;1256;102176;-68
2023/03/29 20:11:08;;;;;;;32.40;13.00;;;;;;;1.40;50.00;99437.99;105567;1256;107060;-71
2023/03/29 20:13:40;;;;;;;44.80;17.90;;;;;;;1.43;50.11;99441.58;105328;1256;97419;-70
2023/03/29 20:16:13;;;;;;;43.90;19.20;;;;;;;1.45;50.13;99437.66;105316;1255;96605;-70
2023/03/29 20:18:43;;;;;;;44.20;18.90;;;;;;;1.46;50.25;99432.38;105422;1251;109839;-69
2023/03/29 20:21:15;;;;;;;41.80;17.80;;;;;;;1.48;50.21;99436.00;105471;1255;103690;-69
2023/03/29 20:23:45;;;;;;;39.40;16.30;;;;;;;1.50;50.03;99431.23;105320;1253;107311;-69
2023/03/29 20:26:14;;;;;;;39.00;16.40;;;;;;;1.52;50.28;99431.01;105581;1255;96600;-70
2023/03/29 20:28:42;;;;;;;41.80;17.90;;;;;;;1.53;50.38;99431.69;105662;1255;96750;-69
2023/03/29 20:31:10;;;;;;;39.90;16.50;;;;;;;1.54;50.18;99433.40;105600;1256;109981;-69
2023/03/29 20:33:40;;;;;;;38.90;16.80;;;;;;;1.55;50.14;99432.67;105304;1255;101057;-69
2023/03/29 20:36:09;;;;;;;40.10;18.40;;;;;;;1.58;50.28;99433.45;105684;1265;109117;-71
2023/03/29 20:38:37;;;;;;;44.70;20.30;;;;;;;1.60;50.34;99433.91;105380;1251;96700;-69
2023/03/29 20:41:08;;;;;;;39.50;17.00;;;;;;;1.61;50.39;99432.84;105651;1250;96526;-70
2023/03/29 20:43:36;;;;;;;55.80;23.50;;;;;;;1.60;50.23;99426.73;105401;1254;108874;-72
2023/03/29 20:46:13;;;;;;;51.40;22.60;;;;;;;1.60;50.31;99427.63;105532;1254;102193;-71
2023/03/29 20:48:44;;;;;;;42.10;18.40;;;;;;;1.59;50.32;99434.64;105442;1252;107567;-70
2023/03/29 20:51:13;;;;;;;39.10;16.60;;;;;;;1.56;50.53;99434.90;105517;1251;97897;-69
2023/03/29 20:53:41;;;;;;;34.20;16.50;;;;;;;1.53;50.36;99434.98;105471;1251;97079;-70
2023/03/29 20:56:12;;;;;;;32.50;14.30;;;;;;;1.50;50.29;99438.39;105584;1251;108320;-72
2023/03/29 20:58:42;;;;;;;32.20;14.30;;;;;;;1.47;50.62;99444.93;105271;1258;102181;-69
2023/03/29 21:01:13;;;;;;;34.70;15.40;;;;;;;1.44;50.33;99440.67;105306;1251;107635;-70
2023/03/29 21:03:42;;;;;;;38.00;16.60;;;;;;;1.41;50.45;99440.77;105437;1257;97830;-70
2023/03/29 21:06:13;;;;;;;36.80;15.80;;;;;;;1.36;50.48;99439.15;105572;1254;96962;-69
2023/03/29 21:08:41;;;;;;;33.60;15.40;;;;;;;1.32;50.59;99435.76;105500;1251;109898;-70
2023/03/29 21:11:11;;;;;;;32.30;12.70;;;;;;;1.31;50.60;99435.46;105446;1251;102445;-70
2023/03/29 21:13:40;;;;;;;30.40;12.90;;;;;;;1.30;50.57;99437.75;105481;1257;106427;-74
2023/03/29 21:16:09;;;;;;;31.20;12.50;;;;;;;1.30;50.45;99432.50;105501;1257;97883;-69
2023/03/29 21:18:39;;;;;;;33.40;14.10;;;;;;;1.30;50.48;99433.91;105366;1256;96682;-73
2023/03/29 21:21:10;;;;;;;32.00;13.20;;;;;;;1.29;50.47;99432.89;105402;1254;109886;-70
2023/03/29 21:23:38;;;;;;;30.70;12.10;;;;;;;1.28;50.60;99429.59;105362;1257;102172;-69
2023/03/29 21:26:06;;;;;;;30.00;12.90;;;;;;;1.29;50.76;99429.73;105332;1254;107732;-69
2023/03/29 21:28:36;;;;;;;33.50;12.00;;;;;;;1.29;50.60;99424.49;105463;1251;96728;-69
2023/03/29 21:31:05;;;;;;;33.50;13.50;;;;;;;1.30;50.60;99416.24;108884;1251;94527;-70
2023/03/29 21:33:34;;;;;;;25.20;9.90;;;;;;;1.33;50.78;99414.10;108792;1251;109634;-71
2023/03/29 21:36:03;;;;;;;28.00;11.70;;;;;;;1.36;50.57;99412.95;106820;1251;101247;-70
2023/03/29 21:38:31;;;;;;;28.00;11.90;;;;;;;1.41;50.80;99416.30;105679;1258;107059;-69
2023/03/29 21:40:59;;;;;;;35.30;14.00;;;;;;;1.46;50.54;99415.44;105855;1256;96583;-71
2023/03/29 21:43:27;;;;;;;30.60;13.90;;;;;;;1.50;50.84;99414.27;105802;1251;96970;-70
2023/03/29 21:45:56;;;;;;;30.90;12.40;;;;;;;1.53;50.69;99412.09;105761;1254;108473;-71
2023/03/29 21:48:25;;;;;;;31.50;12.60;;;;;;;1.56;50.66;99409.02;105471;1256;100482;-69
2023/03/29 21:50:53;;;;;;;27.60;11.20;;;;;;;1.58;50.73;99405.14;105468;1257;107467;-69
2023/03/29 21:53:21;;;;;;;32.10;12.40;;;;;;;1.58;50.80;99408.45;105255;1254;96616;-69
2023/03/29 21:55:52;;;;;;;29.60;11.50;;;;;;;1.60;50.72;99410.48;105428;1254;97778;-69
2023/03/29 21:58:20;;;;;;;29.70;12.60;;;;;;;1.61;50.65;99406.44;105268;1251;109916;-70
2023/03/29 22:00:49;;;;;;;30.70;11.80;;;;;;;1.62;50.76;99407.45;105323;1251;100419;-69
2023/03/29 22:03:18;;;;;;;28.60;12.30;;;;;;;1.61;50.75;99404.33;105632;1254;107666;-69
2023/03/29 22:06:01;;;;;;;31.80;11.50;;;;;;;1.61;50.54;99405.02;105185;1252;96682;-69
2023/03/29 22:08:30;;;;;;;31.20;12.80;;;;;;;1.61;50.99;99393.14;105348;1256;96612;-70
2023/03/29 22:11:12;;;;;;;27.60;12.30;;;;;;;1.60;50.82;99392.31;105275;1258;109796;-68
2023/03/29 22:13:42;;;;;;;30.20;11.80;;;;;;;1.59;51.06;99394.60;105295;1251;102326;-70
2023/03/29 22:16:17;;;;;;;29.60;11.60;;;;;;;1.59;50.77;99394.45;105275;1257;107642;-71
2023/03/29 22:18:48;;;;;;;31.90;11.50;;;;;;;1.58;50.83;99395.00;105312;1254;97403;-69
2023/03/29 22:21:22;;;;;;;28.90;12.60;;;;;;;1.57;50.99;99388.55;105406;1254;97068;-70
2023/03/29 22:23:53;;;;;;;32.30;11.90;;;;;;;1.55;50.74;99390.00;105328;1256;109889;-72
2023/03/29 22:26:26;;;;;;;29.10;11.00;;;;;;;1.53;50.77;99389.71;105502;1251;102243;-69
2023/03/29 22:28:55;;;;;;;26.90;10.20;;;;;;;1.51;50.91;99384.90;105391;1266;107496;-69
2023/03/29 22:31:25;;;;;;;28.50;10.30;;;;;;;1.48;50.84;99382.70;105477;1254;97793;-70
2023/03/29 22:33:54;;;;;;;24.90;9.40;;;;;;;1.46;50.90;99379.08;105471;1254;97099;-69
2023/03/29 22:36:28;;;;;;;24.70;8.80;;;;;;;1.46;50.79;99380.48;105576;1257;109401;-69
2023/03/29 22:38:57;;;;;;;24.90;9.10;;;;;;;1.46;50.68;99383.29;105385;1251;102227;-69
2023/03/29 22:41:26;;;;;;;26.40;9.80;;;;;;;1.44;50.69;99380.02;105351;1257;108157;-69
2023/03/29 22:43:56;;;;;;;31.30;11.50;;;;;;;1.42;51.01;99374.31;105298;1254;96728;-69
2023/03/29 22:46:26;;;;;;;31.70;11.20;;;;;;;1.40;50.87;99380.00;105300;1253;96998;-69
2023/03/29 22:48:55;;;;;;;30.40;11.50;;;;;;;1.37;50.75;99377.44;105343;1255;109080;-73
2023/03/29 22:51:23;;;;;;;25.20;9.20;;;;;;;1.35;50.77;99378.38;105459;1254;101169;-69
2023/03/29 22:53:51;;;;;;;24.50;8.90;;;;;;;1.33;50.76;99373.54;105399;1264;107243;-69
2023/03/29 22:56:19;;;;;;;27.20;9.80;;;;;;;1.31;50.99;99372.20;105500;1255;97551;-69
2023/03/29 22:58:47;;;;;;;29.30;11.20;;;;;;;1.30;50.89;99369.41;105343;1251;96875;-70
2023/03/29 23:01:15;;;;;;;31.50;13.10;;;;;;;1.29;50.59;99365.44;105575;1254;108910;-70
2023/03/29 23:03:44;;;;;;;28.70;11.50;;;;;;;1.29;50.80;99371.21;105469;1252;102165;-71
2023/03/29 23:06:12;;;;;;;25.30;10.60;;;;;;;1.29;50.80;99365.27;105184;1257;107619;-69
2023/03/29 23:08:40;;;;;;;23.50;8.90;;;;;;;1.28;51.00;99364.95;105217;1255;96604;-70
2023/03/29 23:11:08;;;;;;;22.00;7.90;;;;;;;1.27;50.52;99366.71;105565;1254;97909;-69
2023/03/29 23:13:36;;;;;;;22.20;7.30;;;;;;;1.27;50.73;99367.23;105635;1255;109481;-69
2023/03/29 23:16:04;;;;;;;18.90;7.10;;;;;;;1.27;50.63;99370.23;105467;1254;101919;-74
2023/03/29 23:18:33;;;;;;;22.50;8.30;;;;;;;1.26;50.80;99369.91;105339;1256;107161;-69
2023/03/29 23:21:04;;;;;;;18.20;6.10;;;;;;;1.24;50.63;99371.17;105293;1257;97076;-69
2023/03/29 23:23:33;;;;;;;19.20;6.50;;;;;;;1.25;50.79;99368.89;105375;1255;97019;-68
2023/03/29 23:26:01;;;;;;;18.90;6.60;;;;;;;1.25;50.76;99370.10;105279;1257;109652;-70
2023/03/29 23:28:30;;;;;;;20.00;6.50;;;;;;;1.24;50.64;99365.96;105386;1256;102230;-70
2023/03/29 23:31:01;;;;;;;19.50;6.40;;;;;;;1.22;50.69;99370.71;105371;1257;106760;-70
2023/03/29 23:33:33;;;;;;;17.50;6.30;;;;;;;1.22;50.61;99375.63;105320;1251;96680;-69
2023/03/29 23:36:07;;;;;;;19.10;6.60;;;;;;;1.22;50.96;99378.77;105574;1254;96821;-69
2023/03/29 23:38:37;;;;;;;20.90;7.10;;;;;;;1.21;51.08;99375.30;105321;1256;110105;-71
2023/03/29 23:41:07;;;;;;;22.40;7.00;;;;;;;1.23;50.74;99371.40;105360;1266;102262;-68
2023/03/29 23:43:39;;;;;;;20.70;7.70;;;;;;;1.24;50.92;99365.24;105509;1255;107587;-68
2023/03/29 23:46:10;;;;;;;21.90;7.80;;;;;;;1.25;51.00;99357.87;105391;1251;96610;-70
2023/03/29 23:48:38;;;;;;;18.40;6.70;;;;;;;1.26;50.94;99353.48;105477;1251;98337;-69
2023/03/29 23:51:08;;;;;;;20.90;7.40;;;;;;;1.28;50.75;99356.39;105383;1254;109891;-72
2023/03/29 23:53:37;;;;;;;19.40;7.20;;;;;;;1.30;50.78;99353.87;105349;1255;101988;-70
2023/03/29 23:56:06;;;;;;;20.40;7.50;;;;;;;1.33;50.68;99355.88;105558;1255;107764;-72
2023/03/29 23:58:36;;;;;;;18.00;6.00;;;;;;;1.38;50.80;99353.83;105416;1257;96663;-69
